sensor_id;sensor_type;location;lat;lon;timestamp;pressure;altitude;pressure_sealevel;temperature;humidity
39223;BME280;24936;46.328;11.026;2022-11-20T00:01:42;93660.88;;;-2.14;100.00
39223;BME280;24936;46.328;11.026;2022-11-20T00:04:08;93663.97;;;-2.12;100.00
39223;BME280;24936;46.328;11.026;2022-11-20T00:06:33;93668.69;;;-2.21;100.00
39223;BME280;24936;46.328;11.026;2022-11-20T00:09:00;93665.13;;;-2.25;100.00
39223;BME280;24936;46.328;11.026;2022-11-20T00:11:27;93666.88;;;-2.17;100.00
39223;BME280;24936;46.328;11.026;2022-11-20T00:13:55;93662.34;;;-2.16;100.00
39223;BME280;24936;46.328;11.026;2022-11-20T00:16:24;93669.63;;;-2.13;100.00
39223;BME280;24936;46.328;11.026;2022-11-20T00:18:50;93669.00;;;-2.23;100.00
39223;BME280;24936;46.328;11.026;2022-11-20T00:21:17;93670.53;;;-2.22;100.00
39223;BME280;24936;46.328;11.026;2022-11-20T00:23:43;93670.53;;;-2.22;100.00
39223;BME280;24936;46.328;11.026;2022-11-20T00:26:10;93673.44;;;-2.27;100.00
39223;BME280;24936;46.328;11.026;2022-11-20T00:28:36;93671.94;;;-2.40;100.00
39223;BME280;24936;46.328;11.026;2022-11-20T00:31:13;93676.53;;;-2.37;100.00
39223;BME280;24936;46.328;11.026;2022-11-20T00:33:39;93677.09;;;-2.31;100.00
39223;BME280;24936;46.328;11.026;2022-11-20T00:36:07;93674.69;;;-2.36;100.00
39223;BME280;24936;46.328;11.026;2022-11-20T00:38:33;93673.03;;;-2.41;100.00
39223;BME280;24936;46.328;11.026;2022-11-20T00:41:06;93679.09;;;-2.40;100.00
39223;BME280;24936;46.328;11.026;2022-11-20T00:43:32;93680.22;;;-2.41;100.00
39223;BME280;24936;46.328;11.026;2022-11-20T00:46:03;93693.56;;;-2.38;100.00
39223;BME280;24936;46.328;11.026;2022-11-20T00:48:29;93691.31;;;-2.52;100.00
39223;BME280;24936;46.328;11.026;2022-11-20T00:50:55;93697.47;;;-2.48;100.00
39223;BME280;24936;46.328;11.026;2022-11-20T00:53:21;93698.28;;;-2.31;100.00
39223;BME280;24936;46.328;11.026;2022-11-20T00:56:04;93706.50;;;-2.36;100.00
39223;BME280;24936;46.328;11.026;2022-11-20T00:58:41;93704.16;;;-2.38;100.00
39223;BME280;24936;46.328;11.026;2022-11-20T01:03:35;93705.44;;;-2.72;100.00
39223;BME280;24936;46.328;11.026;2022-11-20T01:06:03;93715.03;;;-2.55;100.00
39223;BME280;24936;46.328;11.026;2022-11-20T01:08:30;93706.53;;;-2.61;100.00
39223;BME280;24936;46.328;11.026;2022-11-20T01:11:08;93713.94;;;-2.66;100.00
39223;BME280;24936;46.328;11.026;2022-11-20T01:13:34;93715.50;;;-2.65;100.00
39223;BME280;24936;46.328;11.026;2022-11-20T01:16:13;93711.72;;;-2.64;100.00
39223;BME280;24936;46.328;11.026;2022-11-20T01:18:42;93710.84;;;-2.68;100.00
39223;BME280;24936;46.328;11.026;2022-11-20T01:21:10;93713.28;;;-2.76;100.00
39223;BME280;24936;46.328;11.026;2022-11-20T01:23:38;93710.88;;;-2.81;100.00
39223;BME280;24936;46.328;11.026;2022-11-20T01:26:09;93713.53;;;-2.81;100.00
39223;BME280;24936;46.328;11.026;2022-11-20T01:28:35;93715.28;;;-2.73;100.00
39223;BME280;24936;46.328;11.026;2022-11-20T01:31:01;93728.84;;;-2.86;100.00
39223;BME280;24936;46.328;11.026;2022-11-20T01:33:27;93726.75;;;-2.68;100.00
39223;BME280;24936;46.328;11.026;2022-11-20T01:35:52;93723.19;;;-2.60;100.00
39223;BME280;24936;46.328;11.026;2022-11-20T01:38:18;93730.81;;;-2.59;100.00
39223;BME280;24936;46.328;11.026;2022-11-20T01:40:53;93729.00;;;-2.42;100.00
39223;BME280;24936;46.328;11.026;2022-11-20T01:43:19;93727.47;;;-2.43;100.00
39223;BME280;24936;46.328;11.026;2022-11-20T01:48:14;93730.81;;;-2.59;100.00
39223;BME280;24936;46.328;11.026;2022-11-20T01:50:40;93732.00;;;-2.56;100.00
39223;BME280;24936;46.328;11.026;2022-11-20T01:53:11;93728.19;;;-2.59;100.00
39223;BME280;24936;46.328;11.026;2022-11-20T01:55:43;93726.97;;;-2.61;100.00
39223;BME280;24936;46.328;11.026;2022-11-20T01:58:10;93724.44;;;-2.70;100.00
39223;BME280;24936;46.328;11.026;2022-11-20T02:00:36;93730.94;;;-2.80;100.00
39223;BME280;24936;46.328;11.026;2022-11-20T02:03:05;93726.31;;;-2.95;100.00
39223;BME280;24936;46.328;11.026;2022-11-20T02:05:40;93733.06;;;-2.85;100.00
39223;BME280;24936;46.328;11.026;2022-11-20T02:08:08;93726.13;;;-2.90;100.00
39223;BME280;24936;46.328;11.026;2022-11-20T02:10:34;93732.19;;;-2.89;100.00
39223;BME280;24936;46.328;11.026;2022-11-20T02:12:59;93732.06;;;-2.93;100.00
39223;BME280;24936;46.328;11.026;2022-11-20T02:15:44;93726.53;;;-2.88;100.00
39223;BME280;24936;46.328;11.026;2022-11-20T02:18:11;93739.66;;;-2.91;100.00
39223;BME280;24936;46.328;11.026;2022-11-20T02:20:41;93740.91;;;-2.89;100.00
39223;BME280;24936;46.328;11.026;2022-11-20T02:25:52;93740.66;;;-2.84;100.00
39223;BME280;24936;46.328;11.026;2022-11-20T02:28:18;93739.78;;;-2.88;100.00
39223;BME280;24936;46.328;11.026;2022-11-20T02:30:44;93741.66;;;-3.01;100.00
39223;BME280;24936;46.328;11.026;2022-11-20T02:33:10;93737.78;;;-3.03;100.00
39223;BME280;24936;46.328;11.026;2022-11-20T02:38:02;93743.88;;;-3.15;100.00
39223;BME280;24936;46.328;11.026;2022-11-20T02:40:28;93739.69;;;-3.04;100.00
39223;BME280;24936;46.328;11.026;2022-11-20T02:42:57;93737.03;;;-3.04;100.00
39223;BME280;24936;46.328;11.026;2022-11-20T02:45:23;93742.63;;;-3.05;100.00
39223;BME280;24936;46.328;11.026;2022-11-20T02:47:49;93742.31;;;-3.04;100.00
39223;BME280;24936;46.328;11.026;2022-11-20T02:50:15;93750.81;;;-2.86;100.00
39223;BME280;24936;46.328;11.026;2022-11-20T02:52:41;93744.94;;;-2.79;100.00
39223;BME280;24936;46.328;11.026;2022-11-20T02:55:06;93746.72;;;-2.83;100.00
39223;BME280;24936;46.328;11.026;2022-11-20T02:57:32;93750.47;;;-2.84;100.00
39223;BME280;24936;46.328;11.026;2022-11-20T02:59:57;93743.53;;;-2.89;100.00
39223;BME280;24936;46.328;11.026;2022-11-20T03:02:23;93746.41;;;-2.82;100.00
39223;BME280;24936;46.328;11.026;2022-11-20T03:04:48;93749.81;;;-2.81;100.00
39223;BME280;24936;46.328;11.026;2022-11-20T03:07:14;93746.81;;;-2.55;100.00
39223;BME280;24936;46.328;11.026;2022-11-20T03:09:39;93745.47;;;-2.49;100.00
39223;BME280;24936;46.328;11.026;2022-11-20T03:12:05;93740.09;;;-2.65;100.00
39223;BME280;24936;46.328;11.026;2022-11-20T03:14:30;93736.47;;;-2.73;100.00
39223;BME280;24936;46.328;11.026;2022-11-20T03:16:56;93743.19;;;-2.63;100.00
39223;BME280;24936;46.328;11.026;2022-11-20T03:19:22;93743.50;;;-2.64;100.00
39223;BME280;24936;46.328;11.026;2022-11-20T03:21:47;93745.03;;;-2.63;100.00
39223;BME280;24936;46.328;11.026;2022-11-20T03:24:13;93743.47;;;-2.52;100.00
39223;BME280;24936;46.328;11.026;2022-11-20T03:26:39;93758.09;;;-2.58;100.00
39223;BME280;24936;46.328;11.026;2022-11-20T03:29:05;93756.53;;;-2.59;100.00
39223;BME280;24936;46.328;11.026;2022-11-20T03:31:39;93754.66;;;-2.59;100.00
39223;BME280;24936;46.328;11.026;2022-11-20T03:34:09;93753.34;;;-2.65;100.00
39223;BME280;24936;46.328;11.026;2022-11-20T03:36:38;93755.63;;;-2.63;100.00
39223;BME280;24936;46.328;11.026;2022-11-20T03:39:04;93757.31;;;-2.71;100.00
39223;BME280;24936;46.328;11.026;2022-11-20T03:41:31;93756.22;;;-2.70;100.00
39223;BME280;24936;46.328;11.026;2022-11-20T03:44:00;93755.63;;;-2.63;100.00
39223;BME280;24936;46.328;11.026;2022-11-20T03:46:27;93761.28;;;-2.65;100.00
39223;BME280;24936;46.328;11.026;2022-11-20T03:52:14;93766.91;;;-2.79;100.00
39223;BME280;24936;46.328;11.026;2022-11-20T03:54:40;93766.03;;;-2.83;100.00
39223;BME280;24936;46.328;11.026;2022-11-20T03:57:05;93766.03;;;-2.83;100.00
39223;BME280;24936;46.328;11.026;2022-11-20T03:59:31;93777.06;;;-2.81;100.00
39223;BME280;24936;46.328;11.026;2022-11-20T04:01:56;93772.00;;;-2.74;100.00
39223;BME280;24936;46.328;11.026;2022-11-20T04:04:21;93769.00;;;-2.72;100.00
39223;BME280;24936;46.328;11.026;2022-11-20T04:06:47;93777.31;;;-2.86;100.00
39223;BME280;24936;46.328;11.026;2022-11-20T04:09:12;93776.19;;;-2.97;100.00
39223;BME280;24936;46.328;11.026;2022-11-20T04:11:39;93776.06;;;-2.88;100.00
39223;BME280;24936;46.328;11.026;2022-11-20T04:14:11;93775.66;;;-2.78;100.00
39223;BME280;24936;46.328;11.026;2022-11-20T04:16:37;93782.16;;;-2.88;100.00
39223;BME280;24936;46.328;11.026;2022-11-20T04:19:05;93779.72;;;-2.93;100.00
39223;BME280;24936;46.328;11.026;2022-11-20T04:21:31;93779.91;;;-2.98;100.00
39223;BME280;24936;46.328;11.026;2022-11-20T04:23:57;93777.38;;;-3.07;100.00
39223;BME280;24936;46.328;11.026;2022-11-20T04:26:25;93783.78;;;-3.08;100.00
39223;BME280;24936;46.328;11.026;2022-11-20T04:28:51;93782.25;;;-3.09;100.00
39223;BME280;24936;46.328;11.026;2022-11-20T04:31:25;93780.81;;;-3.06;100.00
39223;BME280;24936;46.328;11.026;2022-11-20T04:33:51;93782.47;;;-3.02;100.00
39223;BME280;24936;46.328;11.026;2022-11-20T04:36:19;93782.03;;;-3.04;100.00
39223;BME280;24936;46.328;11.026;2022-11-20T04:38:45;93783.78;;;-2.83;100.00
39223;BME280;24936;46.328;11.026;2022-11-20T04:41:16;93786.00;;;-2.73;100.00
39223;BME280;24936;46.328;11.026;2022-11-20T04:43:46;93777.97;;;-2.89;100.00
39223;BME280;24936;46.328;11.026;2022-11-20T04:46:12;93778.28;;;-3.03;100.00
39223;BME280;24936;46.328;11.026;2022-11-20T04:48:37;93775.50;;;-3.06;100.00
39223;BME280;24936;46.328;11.026;2022-11-20T04:51:03;93777.94;;;-3.13;100.00
39223;BME280;24936;46.328;11.026;2022-11-20T04:53:29;93779.03;;;-3.14;100.00
39223;BME280;24936;46.328;11.026;2022-11-20T04:56:02;93783.69;;;-3.11;100.00
39223;BME280;24936;46.328;11.026;2022-11-20T04:58:28;93779.16;;;-2.99;100.00
39223;BME280;24936;46.328;11.026;2022-11-20T05:01:00;93778.03;;;-3.10;100.00
39223;BME280;24936;46.328;11.026;2022-11-20T05:03:26;93779.91;;;-3.23;100.00
39223;BME280;24936;46.328;11.026;2022-11-20T05:05:52;93781.91;;;-3.20;100.00
39223;BME280;24936;46.328;11.026;2022-11-20T05:08:17;93783.78;;;-3.08;100.00
39223;BME280;24936;46.328;11.026;2022-11-20T05:10:43;93781.69;;;-3.02;100.00
39223;BME280;24936;46.328;11.026;2022-11-20T05:13:08;93782.03;;;-3.04;100.00
39223;BME280;24936;46.328;11.026;2022-11-20T05:15:33;93782.03;;;-3.04;100.00
39223;BME280;24936;46.328;11.026;2022-11-20T05:17:59;93789.97;;;-3.04;100.00
39223;BME280;24936;46.328;11.026;2022-11-20T05:20:24;93791.38;;;-3.06;100.00
39223;BME280;24936;46.328;11.026;2022-11-20T05:22:49;93787.09;;;-3.11;100.00
39223;BME280;24936;46.328;11.026;2022-11-20T05:25:15;93786.97;;;-3.14;100.00
39223;BME280;24936;46.328;11.026;2022-11-20T05:27:40;93790.28;;;-3.17;100.00
39223;BME280;24936;46.328;11.026;2022-11-20T05:30:06;93794.38;;;-3.08;100.00
39223;BME280;24936;46.328;11.026;2022-11-20T05:32:32;93790.28;;;-3.05;100.00
39223;BME280;24936;46.328;11.026;2022-11-20T05:34:57;93798.91;;;-3.08;100.00
39223;BME280;24936;46.328;11.026;2022-11-20T05:37:23;93790.72;;;-3.15;100.00
39223;BME280;24936;46.328;11.026;2022-11-20T05:39:48;93803.97;;;-3.15;100.00
39223;BME280;24936;46.328;11.026;2022-11-20T05:42:13;93797.91;;;-3.16;100.00
39223;BME280;24936;46.328;11.026;2022-11-20T05:45:01;93803.44;;;-3.09;100.00
39223;BME280;24936;46.328;11.026;2022-11-20T05:47:30;93806.50;;;-3.07;100.00
39223;BME280;24936;46.328;11.026;2022-11-20T05:49:56;93804.72;;;-3.15;100.00
39223;BME280;24936;46.328;11.026;2022-11-20T05:52:21;93809.25;;;-3.15;100.00
39223;BME280;24936;46.328;11.026;2022-11-20T05:54:47;93809.69;;;-3.13;100.00
39223;BME280;24936;46.328;11.026;2022-11-20T05:57:12;93808.69;;;-3.21;100.00
39223;BME280;24936;46.328;11.026;2022-11-20T05:59:38;93809.69;;;-3.13;100.00
39223;BME280;24936;46.328;11.026;2022-11-20T06:02:03;93818.31;;;-3.16;100.00
39223;BME280;24936;46.328;11.026;2022-11-20T06:04:28;93819.72;;;-3.19;100.00
39223;BME280;24936;46.328;11.026;2022-11-20T06:06:54;93824.44;;;-3.25;100.00
39223;BME280;24936;46.328;11.026;2022-11-20T06:09:19;93817.94;;;-3.27;100.00
39223;BME280;24936;46.328;11.026;2022-11-20T06:11:45;93821.56;;;-3.32;100.00
39223;BME280;24936;46.328;11.026;2022-11-20T06:14:10;93824.56;;;-3.21;100.00
39223;BME280;24936;46.328;11.026;2022-11-20T06:16:36;93824.47;;;-3.12;100.00
39223;BME280;24936;46.328;11.026;2022-11-20T06:19:01;93830.75;;;-3.17;100.00
39223;BME280;24936;46.328;11.026;2022-11-20T06:21:27;93828.53;;;-3.27;100.00
39223;BME280;24936;46.328;11.026;2022-11-20T06:23:53;93827.75;;;-3.28;100.00
39223;BME280;24936;46.328;11.026;2022-11-20T06:26:24;93832.25;;;-3.28;100.00
39223;BME280;24936;46.328;11.026;2022-11-20T06:28:50;93826.56;;;-3.18;100.00
39223;BME280;24936;46.328;11.026;2022-11-20T06:31:19;93831.44;;;-2.96;100.00
39223;BME280;24936;46.328;11.026;2022-11-20T06:33:45;93843.47;;;-2.98;100.00
39223;BME280;24936;46.328;11.026;2022-11-20T06:36:13;93838.59;;;-3.08;100.00
39223;BME280;24936;46.328;11.026;2022-11-20T06:38:39;93845.22;;;-3.02;100.00
39223;BME280;24936;46.328;11.026;2022-11-20T06:41:06;93850.50;;;-3.02;100.00
39223;BME280;24936;46.328;11.026;2022-11-20T06:43:32;93854.16;;;-2.95;100.00
39223;BME280;24936;46.328;11.026;2022-11-20T06:45:58;93847.56;;;-3.01;100.00
39223;BME280;24936;46.328;11.026;2022-11-20T06:48:26;93860.44;;;-2.99;100.00
39223;BME280;24936;46.328;11.026;2022-11-20T06:50:52;93859.31;;;-3.10;100.00
39223;BME280;24936;46.328;11.026;2022-11-20T06:53:17;93862.59;;;-3.26;100.00
39223;BME280;24936;46.328;11.026;2022-11-20T06:55:44;93864.00;;;-3.28;100.00
39223;BME280;24936;46.328;11.026;2022-11-20T06:58:10;93867.00;;;-3.30;100.00
39223;BME280;24936;46.328;11.026;2022-11-20T07:00:36;93875.00;;;-3.38;100.00
39223;BME280;24936;46.328;11.026;2022-11-20T07:03:05;93877.78;;;-3.35;100.00
39223;BME280;24936;46.328;11.026;2022-11-20T07:05:31;93875.19;;;-3.44;100.00
39223;BME280;24936;46.328;11.026;2022-11-20T07:07:57;93878.63;;;-3.43;100.00
39223;BME280;24936;46.328;11.026;2022-11-20T07:10:22;93878.81;;;-3.27;100.00
39223;BME280;24936;46.328;11.026;2022-11-20T07:12:54;93883.75;;;-3.26;100.00
39223;BME280;24936;46.328;11.026;2022-11-20T07:15:21;93892.41;;;-3.16;100.00
39223;BME280;24936;46.328;11.026;2022-11-20T07:17:47;93891.97;;;-3.06;100.00
39223;BME280;24936;46.328;11.026;2022-11-20T07:20:13;93884.09;;;-2.82;100.00
39223;BME280;24936;46.328;11.026;2022-11-20T07:22:39;93891.84;;;-2.64;100.00
39223;BME280;24936;46.328;11.026;2022-11-20T07:25:05;93879.59;;;-2.69;100.00
39223;BME280;24936;46.328;11.026;2022-11-20T07:27:31;93891.63;;;-2.59;100.00
39223;BME280;24936;46.328;11.026;2022-11-20T07:29:56;93888.31;;;-2.56;100.00
39223;BME280;24936;46.328;11.026;2022-11-20T07:32:22;93891.53;;;-2.38;100.00
39223;BME280;24936;46.328;11.026;2022-11-20T07:34:47;93886.97;;;-2.26;100.00
39223;BME280;24936;46.328;11.026;2022-11-20T07:37:13;93887.44;;;-2.11;100.00
39223;BME280;24936;46.328;11.026;2022-11-20T07:39:39;93883.25;;;-2.12;100.00
39223;BME280;24936;46.328;11.026;2022-11-20T07:42:06;93888.50;;;-1.88;100.00
39223;BME280;24936;46.328;11.026;2022-11-20T07:44:31;93875.47;;;-1.93;100.00
39223;BME280;24936;46.328;11.026;2022-11-20T07:46:56;93873.97;;;-1.66;100.00
39223;BME280;24936;46.328;11.026;2022-11-20T07:49:22;93880.00;;;-1.53;100.00
39223;BME280;24936;46.328;11.026;2022-11-20T07:51:50;93885.00;;;-1.52;100.00
39223;BME280;24936;46.328;11.026;2022-11-20T07:54:16;93892.41;;;-1.57;100.00
39223;BME280;24936;46.328;11.026;2022-11-20T07:56:41;93889.75;;;-1.57;100.00
39223;BME280;24936;46.328;11.026;2022-11-20T07:59:07;93889.28;;;-1.47;100.00
39223;BME280;24936;46.328;11.026;2022-11-20T08:01:32;93886.63;;;-1.47;100.00
39223;BME280;24936;46.328;11.026;2022-11-20T08:03:58;93889.28;;;-1.19;100.00
39223;BME280;24936;46.328;11.026;2022-11-20T08:06:23;93882.28;;;-1.11;100.00
39223;BME280;24936;46.328;11.026;2022-11-20T08:08:50;93894.03;;;-0.96;100.00
39223;BME280;24936;46.328;11.026;2022-11-20T08:11:15;93896.69;;;-0.68;100.00
39223;BME280;24936;46.328;11.026;2022-11-20T08:13:59;93896.00;;;-0.18;100.00
39223;BME280;24936;46.328;11.026;2022-11-20T08:16:37;93891.00;;;-0.19;100.00
39223;BME280;24936;46.328;11.026;2022-11-20T08:19:02;93892.97;;;-0.16;100.00
39223;BME280;24936;46.328;11.026;2022-11-20T08:21:27;93891.47;;;0.18;100.00
39223;BME280;24936;46.328;11.026;2022-11-20T08:23:53;93885.00;;;0.35;100.00
39223;BME280;24936;46.328;11.026;2022-11-20T08:26:18;93882.28;;;0.70;100.00
39223;BME280;24936;46.328;11.026;2022-11-20T08:28:45;93879.31;;;0.94;100.00
39223;BME280;24936;46.328;11.026;2022-11-20T08:31:11;93867.59;;;1.64;100.00
39223;BME280;24936;46.328;11.026;2022-11-20T08:33:36;93875.03;;;1.78;100.00
39223;BME280;24936;46.328;11.026;2022-11-20T08:36:03;93872.03;;;1.57;100.00
39223;BME280;24936;46.328;11.026;2022-11-20T08:38:29;93875.03;;;1.32;100.00
39223;BME280;24936;46.328;11.026;2022-11-20T08:41:00;93867.59;;;1.41;100.00
39223;BME280;24936;46.328;11.026;2022-11-20T08:43:45;93869.03;;;2.38;100.00
39223;BME280;24936;46.328;11.026;2022-11-20T08:46:10;93861.47;;;3.07;100.00
39223;BME280;24936;46.328;11.026;2022-11-20T08:48:36;93859.47;;;3.82;100.00
39223;BME280;24936;46.328;11.026;2022-11-20T08:51:01;93854.53;;;5.66;100.00
39223;BME280;24936;46.328;11.026;2022-11-20T08:53:27;93850.91;;;7.61;100.00
39223;BME280;24936;46.328;11.026;2022-11-20T08:55:53;93849.13;;;8.82;100.00
39223;BME280;24936;46.328;11.026;2022-11-20T08:58:18;93842.03;;;9.52;100.00
39223;BME280;24936;46.328;11.026;2022-11-20T09:00:43;93837.94;;;10.18;100.00
39223;BME280;24936;46.328;11.026;2022-11-20T09:03:09;93842.25;;;10.83;100.00
39223;BME280;24936;46.328;11.026;2022-11-20T09:05:34;93841.72;;;11.47;98.96
39223;BME280;24936;46.328;11.026;2022-11-20T09:08:00;93836.25;;;12.04;95.89
39223;BME280;24936;46.328;11.026;2022-11-20T09:10:28;93836.31;;;11.84;69.53
39223;BME280;24936;46.328;11.026;2022-11-20T09:12:54;93837.56;;;11.79;77.88
39223;BME280;24936;46.328;11.026;2022-11-20T09:15:24;93833.19;;;11.49;76.62
39223;BME280;24936;46.328;11.026;2022-11-20T09:20:17;93832.69;;;12.23;65.92
39223;BME280;24936;46.328;11.026;2022-11-20T09:22:44;93825.75;;;12.51;57.38
39223;BME280;24936;46.328;11.026;2022-11-20T09:25:09;93825.63;;;13.29;65.79
39223;BME280;24936;46.328;11.026;2022-11-20T09:27:34;93829.84;;;12.88;60.62
39223;BME280;24936;46.328;11.026;2022-11-20T09:30:01;93828.94;;;12.79;56.93
39223;BME280;24936;46.328;11.026;2022-11-20T09:32:26;93822.47;;;12.60;60.06
39223;BME280;24936;46.328;11.026;2022-11-20T09:34:51;93828.09;;;12.04;62.33
39223;BME280;24936;46.328;11.026;2022-11-20T09:37:17;93830.41;;;12.67;62.74
39223;BME280;24936;46.328;11.026;2022-11-20T09:39:42;93824.69;;;12.32;68.56
39223;BME280;24936;46.328;11.026;2022-11-20T09:55:12;93816.88;;;11.53;87.50
39223;BME280;24936;46.328;11.026;2022-11-20T09:57:42;93823.59;;;11.44;72.95
39223;BME280;24936;46.328;11.026;2022-11-20T10:00:11;93822.25;;;11.16;85.55
39223;BME280;24936;46.328;11.026;2022-11-20T10:02:59;93826.56;;;11.14;80.83
39223;BME280;24936;46.328;11.026;2022-11-20T10:05:30;93814.09;;;11.36;61.89
39223;BME280;24936;46.328;11.026;2022-11-20T10:08:37;93820.06;;;11.84;77.01
39223;BME280;24936;46.328;11.026;2022-11-20T10:25:19;93807.00;;;10.86;77.55
39223;BME280;24936;46.328;11.026;2022-11-20T10:30:21;93798.19;;;10.82;69.64
39223;BME280;24936;46.328;11.026;2022-11-20T10:33:04;93798.00;;;10.73;72.33
39223;BME280;24936;46.328;11.026;2022-11-20T10:35:42;93791.94;;;11.05;72.01
39223;BME280;24936;46.328;11.026;2022-11-20T10:38:17;93794.09;;;10.54;72.25
39223;BME280;24936;46.328;11.026;2022-11-20T10:40:48;93787.13;;;11.49;56.18
39223;BME280;24936;46.328;11.026;2022-11-20T10:43:32;93779.44;;;13.42;61.67
39223;BME280;24936;46.328;11.026;2022-11-20T10:46:10;93772.41;;;13.03;51.29
39223;BME280;24936;46.328;11.026;2022-11-20T10:48:40;93765.44;;;13.56;54.50
39223;BME280;24936;46.328;11.026;2022-11-20T10:54:18;93753.78;;;14.29;53.64
39223;BME280;24936;46.328;11.026;2022-11-20T10:56:47;93747.16;;;13.82;54.61
39223;BME280;24936;46.328;11.026;2022-11-20T10:59:38;93748.03;;;13.54;51.22
39223;BME280;24936;46.328;11.026;2022-11-20T11:02:23;93746.19;;;13.25;51.98
39223;BME280;24936;46.328;11.026;2022-11-20T11:04:51;93745.44;;;13.37;60.88
39223;BME280;24936;46.328;11.026;2022-11-20T11:07:24;93731.03;;;12.99;52.51
39223;BME280;24936;46.328;11.026;2022-11-20T11:09:55;93735.69;;;12.27;69.38
39223;BME280;24936;46.328;11.026;2022-11-20T11:12:23;93735.91;;;11.71;59.84
39223;BME280;24936;46.328;11.026;2022-11-20T11:14:56;93741.00;;;12.02;63.62
39223;BME280;24936;46.328;11.026;2022-11-20T11:17:31;93736.50;;;12.69;59.00
39223;BME280;24936;46.328;11.026;2022-11-20T11:25:39;93713.78;;;14.17;46.50
39223;BME280;24936;46.328;11.026;2022-11-20T11:30:44;93711.81;;;15.67;42.80
39223;BME280;24936;46.328;11.026;2022-11-20T11:33:11;93702.03;;;15.88;40.52
39223;BME280;24936;46.328;11.026;2022-11-20T11:35:54;93699.44;;;15.44;42.59
39223;BME280;24936;46.328;11.026;2022-11-20T11:40:56;93688.03;;;13.48;55.20
39223;BME280;24936;46.328;11.026;2022-11-20T11:43:25;93691.72;;;13.67;63.58
39223;BME280;24936;46.328;11.026;2022-11-20T11:46:29;93687.53;;;14.45;62.26
39223;BME280;24936;46.328;11.026;2022-11-20T11:48:56;93694.03;;;14.25;51.94
39223;BME280;24936;46.328;11.026;2022-11-20T11:51:25;93697.81;;;13.58;59.04
39223;BME280;24936;46.328;11.026;2022-11-20T11:53:52;93689.97;;;13.22;48.90
39223;BME280;24936;46.328;11.026;2022-11-20T11:56:17;93688.44;;;12.96;50.96
39223;BME280;24936;46.328;11.026;2022-11-20T11:58:47;93695.91;;;12.79;62.25
39223;BME280;24936;46.328;11.026;2022-11-20T12:01:42;93690.31;;;12.44;59.45
39223;BME280;24936;46.328;11.026;2022-11-20T12:07:34;93678.78;;;13.07;72.90
39223;BME280;24936;46.328;11.026;2022-11-20T12:10:03;93675.28;;;13.20;62.32
39223;BME280;24936;46.328;11.026;2022-11-20T12:12:36;93666.56;;;13.76;66.52
39223;BME280;24936;46.328;11.026;2022-11-20T12:15:10;93655.47;;;14.39;50.86
39223;BME280;24936;46.328;11.026;2022-11-20T12:17:36;93655.78;;;14.95;53.35
39223;BME280;24936;46.328;11.026;2022-11-20T12:20:02;93641.78;;;15.64;48.26
39223;BME280;24936;46.328;11.026;2022-11-20T12:22:51;93653.84;;;15.85;47.71
39223;BME280;24936;46.328;11.026;2022-11-20T12:28:51;93646.38;;;14.86;46.63
39223;BME280;24936;46.328;11.026;2022-11-20T12:31:51;93635.03;;;15.78;48.96
39223;BME280;24936;46.328;11.026;2022-11-20T12:34:02;93639.44;;;14.95;48.83
39223;BME280;24936;46.328;11.026;2022-11-20T13:01:50;93629.13;;;15.21;62.54
39223;BME280;24936;46.328;11.026;2022-11-20T13:07:02;93622.16;;;14.57;52.69
39223;BME280;24936;46.328;11.026;2022-11-20T13:09:29;93624.31;;;14.62;52.41
39223;BME280;24936;46.328;11.026;2022-11-20T13:12:09;93629.81;;;14.72;53.80
39223;BME280;24936;46.328;11.026;2022-11-20T13:17:43;93617.16;;;14.34;48.50
39223;BME280;24936;46.328;11.026;2022-11-20T13:20:16;93617.38;;;14.93;48.82
39223;BME280;24936;46.328;11.026;2022-11-20T13:22:48;93605.66;;;15.23;48.52
39223;BME280;24936;46.328;11.026;2022-11-20T13:25:30;93613.38;;;14.53;55.09
39223;BME280;24936;46.328;11.026;2022-11-20T13:27:58;93600.22;;;15.23;48.69
39223;BME280;24936;46.328;11.026;2022-11-20T13:30:27;93604.97;;;15.59;55.63
39223;BME280;24936;46.328;11.026;2022-11-20T13:33:07;93596.03;;;15.59;54.28
39223;BME280;24936;46.328;11.026;2022-11-20T13:35:41;93602.47;;;15.16;48.13
39223;BME280;24936;46.328;11.026;2022-11-20T13:38:08;93589.41;;;14.70;52.17
39223;BME280;24936;46.328;11.026;2022-11-20T13:40:36;93588.44;;;14.33;61.17
39223;BME280;24936;46.328;11.026;2022-11-20T13:45:54;93585.13;;;13.72;69.41
39223;BME280;24936;46.328;11.026;2022-11-20T13:48:23;93588.69;;;13.47;67.49
39223;BME280;24936;46.328;11.026;2022-11-20T13:50:56;93589.22;;;13.55;73.53
39223;BME280;24936;46.328;11.026;2022-11-20T14:01:49;93593.94;;;13.03;76.53
39223;BME280;24936;46.328;11.026;2022-11-20T14:04:19;93593.44;;;12.28;75.93
39223;BME280;24936;46.328;11.026;2022-11-20T14:06:46;93588.94;;;12.89;80.73
39223;BME280;24936;46.328;11.026;2022-11-20T14:09:27;93579.72;;;13.25;83.26
39223;BME280;24936;46.328;11.026;2022-11-20T14:11:53;93583.16;;;13.12;74.71
39223;BME280;24936;46.328;11.026;2022-11-20T14:14:22;93584.56;;;12.28;71.17
39223;BME280;24936;46.328;11.026;2022-11-20T14:16:49;93590.03;;;12.40;70.33
39223;BME280;24936;46.328;11.026;2022-11-20T14:21:48;93583.19;;;13.00;75.21
39223;BME280;24936;46.328;11.026;2022-11-20T14:24:19;93577.09;;;12.44;84.37
39223;BME280;24936;46.328;11.026;2022-11-20T14:26:45;93581.06;;;11.40;82.10
39223;BME280;24936;46.328;11.026;2022-11-20T14:29:19;93581.41;;;11.42;100.00
39223;BME280;24936;46.328;11.026;2022-11-20T14:31:46;93593.34;;;10.63;100.00
39223;BME280;24936;46.328;11.026;2022-11-20T14:34:19;93585.97;;;9.47;100.00
39223;BME280;24936;46.328;11.026;2022-11-20T14:36:45;93589.84;;;8.49;100.00
39223;BME280;24936;46.328;11.026;2022-11-20T14:39:12;93598.50;;;8.02;100.00
39223;BME280;24936;46.328;11.026;2022-11-20T14:41:51;93594.84;;;7.51;100.00